sensor_id;sensor_type;location;lat;lon;timestamp;pressure;altitude;pressure_sealevel;temperature;humidity
8641;BME280;4358;42.100;25.222;2023-04-08T00:02:02;100348.75;;;8.35;100.00
8641;BME280;4358;42.100;25.222;2023-04-08T00:04:29;100345.25;;;8.34;100.00
8641;BME280;4358;42.100;25.222;2023-04-08T00:06:56;100345.25;;;8.34;100.00
8641;BME280;4358;42.100;25.222;2023-04-08T00:09:25;100338.69;;;8.24;100.00
8641;BME280;4358;42.100;25.222;2023-04-08T00:11:51;100346.97;;;8.17;100.00
8641;BME280;4358;42.100;25.222;2023-04-08T00:14:18;100344.44;;;8.15;100.00
8641;BME280;4358;42.100;25.222;2023-04-08T00:16:45;100340.22;;;8.28;100.00
8641;BME280;4358;42.100;25.222;2023-04-08T00:19:12;100343.22;;;8.39;100.00
8641;BME280;4358;42.100;25.222;2023-04-08T00:21:39;100349.25;;;8.24;100.00
8641;BME280;4358;42.100;25.222;2023-04-08T00:24:05;100337.59;;;8.11;100.00
8641;BME280;4358;42.100;25.222;2023-04-08T00:26:34;100357.97;;;8.26;100.00
8641;BME280;4358;42.100;25.222;2023-04-08T00:29:00;100353.63;;;8.25;100.00
8641;BME280;4358;42.100;25.222;2023-04-08T00:31:27;100349.25;;;8.24;100.00
8641;BME280;4358;42.100;25.222;2023-04-08T00:33:54;100348.63;;;8.19;100.00
8641;BME280;4358;42.100;25.222;2023-04-08T00:36:21;100345.91;;;8.21;100.00
8641;BME280;4358;42.100;25.222;2023-04-08T00:38:48;100339.91;;;8.00;100.00
8641;BME280;4358;42.100;25.222;2023-04-08T00:41:15;100354.63;;;8.05;100.00
8641;BME280;4358;42.100;25.222;2023-04-08T00:43:43;100345.03;;;8.03;100.00
8641;BME280;4358;42.100;25.222;2023-04-08T00:46:10;100359.72;;;8.08;100.00
8641;BME280;4358;42.100;25.222;2023-04-08T00:48:37;100350.03;;;8.09;100.00
8641;BME280;4358;42.100;25.222;2023-04-08T00:51:04;100345.44;;;7.95;100.00
8641;BME280;4358;42.100;25.222;2023-04-08T00:53:31;100360.25;;;7.98;100.00
8641;BME280;4358;42.100;25.222;2023-04-08T00:55:58;100364.84;;;7.94;100.00
8641;BME280;4358;42.100;25.222;2023-04-08T00:58:26;100358.66;;;7.95;100.00
8641;BME280;4358;42.100;25.222;2023-04-08T01:00:59;100355.91;;;7.97;100.00
8641;BME280;4358;42.100;25.222;2023-04-08T01:03:35;100351.25;;;8.02;100.00
8641;BME280;4358;42.100;25.222;2023-04-08T01:06:12;100356.75;;;7.97;100.00
8641;BME280;4358;42.100;25.222;2023-04-08T01:08:42;100355.78;;;8.00;100.00
8641;BME280;4358;42.100;25.222;2023-04-08T01:11:10;100352.50;;;7.95;100.00
8641;BME280;4358;42.100;25.222;2023-04-08T01:13:39;100370.91;;;7.96;100.00
8641;BME280;4358;42.100;25.222;2023-04-08T01:16:11;100352.00;;;7.87;100.00
8641;BME280;4358;42.100;25.222;2023-04-08T01:18:40;100363.38;;;7.89;100.00
8641;BME280;4358;42.100;25.222;2023-04-08T01:21:09;100357.28;;;7.87;100.00
8641;BME280;4358;42.100;25.222;2023-04-08T01:23:42;100367.91;;;7.85;100.00
8641;BME280;4358;42.100;25.222;2023-04-08T01:26:20;100369.09;;;7.80;100.00
8641;BME280;4358;42.100;25.222;2023-04-08T01:28:49;100370.78;;;7.81;100.00
8641;BME280;4358;42.100;25.222;2023-04-08T01:31:18;100379.50;;;7.83;100.00
8641;BME280;4358;42.100;25.222;2023-04-08T01:33:45;100373.94;;;7.89;100.00
8641;BME280;4358;42.100;25.222;2023-04-08T01:36:14;100376.41;;;7.92;100.00
8641;BME280;4358;42.100;25.222;2023-04-08T01:38:43;100366.63;;;7.94;100.00
8641;BME280;4358;42.100;25.222;2023-04-08T01:41:12;100332.69;;;7.68;100.00
8641;BME280;4358;42.100;25.222;2023-04-08T01:43:41;100370.84;;;7.98;100.00
8641;BME280;4358;42.100;25.222;2023-04-08T01:46:10;100359.09;;;8.03;100.00
8641;BME280;4358;42.100;25.222;2023-04-08T01:48:37;100367.34;;;7.97;100.00
8641;BME280;4358;42.100;25.222;2023-04-08T01:51:06;100366.47;;;7.97;100.00
8641;BME280;4358;42.100;25.222;2023-04-08T01:53:34;100366.63;;;7.94;100.00
8641;BME280;4358;42.100;25.222;2023-04-08T01:56:05;100353.56;;;7.91;100.00
8641;BME280;4358;42.100;25.222;2023-04-08T01:58:38;100378.59;;;8.01;100.00
8641;BME280;4358;42.100;25.222;2023-04-08T02:01:10;100387.97;;;8.08;100.00
8641;BME280;4358;42.100;25.222;2023-04-08T02:03:37;100388.25;;;8.02;100.00
8641;BME280;4358;42.100;25.222;2023-04-08T02:06:07;100394.34;;;8.04;100.00
8641;BME280;4358;42.100;25.222;2023-04-08T02:08:34;100382.72;;;8.06;100.00
8641;BME280;4358;42.100;25.222;2023-04-08T02:11:01;100385.78;;;7.99;100.00
8641;BME280;4358;42.100;25.222;2023-04-08T02:13:29;100388.88;;;8.07;100.00
8641;BME280;4358;42.100;25.222;2023-04-08T02:16:02;100391.78;;;8.20;100.00
8641;BME280;4358;42.100;25.222;2023-04-08T02:18:31;100395.13;;;8.23;100.00
8641;BME280;4358;42.100;25.222;2023-04-08T02:21:06;100381.44;;;8.15;100.00
8641;BME280;4358;42.100;25.222;2023-04-08T02:23:37;100384.00;;;8.17;100.00
8641;BME280;4358;42.100;25.222;2023-04-08T02:26:07;100382.38;;;8.14;100.00
8641;BME280;4358;42.100;25.222;2023-04-08T02:28:38;100371.00;;;8.12;100.00
8641;BME280;4358;42.100;25.222;2023-04-08T02:31:08;100377.25;;;8.28;100.00
8641;BME280;4358;42.100;25.222;2023-04-08T02:33:39;100390.34;;;8.48;100.00
8641;BME280;4358;42.100;25.222;2023-04-08T02:36:07;100387.41;;;8.55;100.00
8641;BME280;4358;42.100;25.222;2023-04-08T02:38:35;100388.50;;;8.50;100.00
8641;BME280;4358;42.100;25.222;2023-04-08T02:41:02;100383.38;;;8.47;100.00
8641;BME280;4358;42.100;25.222;2023-04-08T02:43:28;100389.50;;;8.48;100.00
8641;BME280;4358;42.100;25.222;2023-04-08T02:45:57;100389.44;;;8.49;100.00
8641;BME280;4358;42.100;25.222;2023-04-08T02:48:25;100393.78;;;8.50;100.00
8641;BME280;4358;42.100;25.222;2023-04-08T02:50:53;100386.53;;;8.54;100.00
8641;BME280;4358;42.100;25.222;2023-04-08T02:53:22;100398.84;;;8.55;100.00
8641;BME280;4358;42.100;25.222;2023-04-08T02:55:49;100398.47;;;8.63;100.00
8641;BME280;4358;42.100;25.222;2023-04-08T02:58:16;100410.44;;;8.70;100.00
8641;BME280;4358;42.100;25.222;2023-04-08T03:00:43;100405.31;;;8.67;100.00
8641;BME280;4358;42.100;25.222;2023-04-08T03:03:09;100410.28;;;8.73;100.00
8641;BME280;4358;42.100;25.222;2023-04-08T03:05:36;100376.88;;;8.53;100.00
8641;BME280;4358;42.100;25.222;2023-04-08T03:08:05;100413.56;;;8.78;100.00
8641;BME280;4358;42.100;25.222;2023-04-08T03:10:32;100419.16;;;8.72;100.00
8641;BME280;4358;42.100;25.222;2023-04-08T03:12:59;100420.50;;;8.63;100.00
8641;BME280;4358;42.100;25.222;2023-04-08T03:15:25;100417.19;;;8.75;100.00
8641;BME280;4358;42.100;25.222;2023-04-08T03:17:52;100415.72;;;8.70;100.00
8641;BME280;4358;42.100;25.222;2023-04-08T03:20:19;100417.84;;;8.63;100.00
8641;BME280;4358;42.100;25.222;2023-04-08T03:22:46;100417.59;;;8.68;100.00
8641;BME280;4358;42.100;25.222;2023-04-08T03:25:14;100414.94;;;8.50;100.00
8641;BME280;4358;42.100;25.222;2023-04-08T03:27:41;100416.38;;;8.58;100.00
8641;BME280;4358;42.100;25.222;2023-04-08T03:30:08;100424.94;;;8.63;100.00
8641;BME280;4358;42.100;25.222;2023-04-08T03:32:35;100432.75;;;8.64;100.00
8641;BME280;4358;42.100;25.222;2023-04-08T03:35:02;100435.03;;;8.72;100.00
8641;BME280;4358;42.100;25.222;2023-04-08T03:37:29;100437.91;;;8.67;100.00
8641;BME280;4358;42.100;25.222;2023-04-08T03:39:56;100438.16;;;8.63;100.00
8641;BME280;4358;42.100;25.222;2023-04-08T03:42:24;100436.56;;;8.59;100.00
8641;BME280;4358;42.100;25.222;2023-04-08T03:44:51;100434.41;;;8.49;100.00
8641;BME280;4358;42.100;25.222;2023-04-08T03:47:18;100433.63;;;8.47;100.00
8641;BME280;4358;42.100;25.222;2023-04-08T03:49:45;100439.06;;;8.44;100.00
8641;BME280;4358;42.100;25.222;2023-04-08T03:52:12;100440.44;;;8.34;100.00
8641;BME280;4358;42.100;25.222;2023-04-08T03:54:38;100441.72;;;8.26;100.00
8641;BME280;4358;42.100;25.222;2023-04-08T03:57:05;100441.72;;;8.26;100.00
8641;BME280;4358;42.100;25.222;2023-04-08T03:59:33;100418.28;;;8.18;100.00
8641;BME280;4358;42.100;25.222;2023-04-08T04:02:00;100438.91;;;8.30;100.00
8641;BME280;4358;42.100;25.222;2023-04-08T04:04:27;100437.63;;;8.37;100.00
8641;BME280;4358;42.100;25.222;2023-04-08T04:06:54;100434.56;;;8.46;100.00
8641;BME280;4358;42.100;25.222;2023-04-08T04:09:21;100437.97;;;8.48;100.00
8641;BME280;4358;42.100;25.222;2023-04-08T04:11:48;100439.31;;;8.57;100.00
8641;BME280;4358;42.100;25.222;2023-04-08T04:14:15;100443.19;;;8.50;100.00
8641;BME280;4358;42.100;25.222;2023-04-08T04:16:43;100444.69;;;8.56;100.00
8641;BME280;4358;42.100;25.222;2023-04-08T04:19:10;100455.09;;;8.59;100.00
8641;BME280;4358;42.100;25.222;2023-04-08T04:21:37;100456.47;;;8.48;100.00
8641;BME280;4358;42.100;25.222;2023-04-08T04:24:04;100448.72;;;8.45;100.00
8641;BME280;4358;42.100;25.222;2023-04-08T04:26:31;100458.44;;;8.45;100.00
8641;BME280;4358;42.100;25.222;2023-04-08T04:28:58;100445.25;;;8.26;100.00
8641;BME280;4358;42.100;25.222;2023-04-08T04:31:25;100462.16;;;8.41;100.00
8641;BME280;4358;42.100;25.222;2023-04-08T04:33:53;100463.50;;;8.49;100.00
8641;BME280;4358;42.100;25.222;2023-04-08T04:36:20;100462.56;;;8.50;100.00
8641;BME280;4358;42.100;25.222;2023-04-08T04:38:48;100468.56;;;8.54;100.00
8641;BME280;4358;42.100;25.222;2023-04-08T04:41:15;100466.69;;;8.56;100.00
8641;BME280;4358;42.100;25.222;2023-04-08T04:43:42;100468.25;;;8.60;100.00
8641;BME280;4358;42.100;25.222;2023-04-08T04:46:08;100469.75;;;8.66;100.00
8641;BME280;4358;42.100;25.222;2023-04-08T04:48:35;100469.28;;;8.75;100.00
8641;BME280;4358;42.100;25.222;2023-04-08T04:51:04;100478.78;;;8.79;100.00
8641;BME280;4358;42.100;25.222;2023-04-08T04:53:32;100475.53;;;8.74;100.00
8641;BME280;4358;42.100;25.222;2023-04-08T04:55:58;100472.16;;;8.87;100.00
8641;BME280;4358;42.100;25.222;2023-04-08T04:58:26;100481.59;;;8.93;100.00
8641;BME280;4358;42.100;25.222;2023-04-08T05:00:53;100474.41;;;8.95;100.00
8641;BME280;4358;42.100;25.222;2023-04-08T05:03:20;100474.56;;;8.92;100.00
8641;BME280;4358;42.100;25.222;2023-04-08T05:05:50;100474.13;;;8.84;100.00
8641;BME280;4358;42.100;25.222;2023-04-08T05:08:19;100477.63;;;8.84;100.00
8641;BME280;4358;42.100;25.222;2023-04-08T05:10:46;100475.06;;;8.83;100.00
8641;BME280;4358;42.100;25.222;2023-04-08T05:13:14;100482.91;;;8.84;100.00
8641;BME280;4358;42.100;25.222;2023-04-08T05:15:41;100475.59;;;8.89;100.00
8641;BME280;4358;42.100;25.222;2023-04-08T05:18:10;100481.41;;;8.96;100.00
8641;BME280;4358;42.100;25.222;2023-04-08T05:20:37;100477.47;;;8.87;100.00
8641;BME280;4358;42.100;25.222;2023-04-08T05:23:03;100480.19;;;8.86;100.00
8641;BME280;4358;42.100;25.222;2023-04-08T05:25:33;100474.56;;;8.92;100.00
8641;BME280;4358;42.100;25.222;2023-04-08T05:27:59;100474.41;;;9.12;100.00
8641;BME280;4358;42.100;25.222;2023-04-08T05:30:26;100470.09;;;9.27;100.00
8641;BME280;4358;42.100;25.222;2023-04-08T05:32:53;100480.22;;;9.36;100.00
8641;BME280;4358;42.100;25.222;2023-04-08T05:35:20;100481.50;;;9.45;100.00
8641;BME280;4358;42.100;25.222;2023-04-08T05:37:47;100484.13;;;9.62;100.00
8641;BME280;4358;42.100;25.222;2023-04-08T05:40:14;100478.94;;;9.76;100.00
8641;BME280;4358;42.100;25.222;2023-04-08T05:42:42;100485.09;;;9.92;100.00
8641;BME280;4358;42.100;25.222;2023-04-08T05:45:09;100491.09;;;10.11;100.00
8641;BME280;4358;42.100;25.222;2023-04-08T05:47:36;100501.56;;;10.14;100.00
8641;BME280;4358;42.100;25.222;2023-04-08T05:50:04;100505.47;;;10.07;100.00
8641;BME280;4358;42.100;25.222;2023-04-08T05:52:31;100505.28;;;10.10;100.00
8641;BME280;4358;42.100;25.222;2023-04-08T05:54:58;100511.50;;;10.27;100.00
8641;BME280;4358;42.100;25.222;2023-04-08T05:57:25;100507.38;;;10.37;100.00
8641;BME280;4358;42.100;25.222;2023-04-08T05:59:53;100507.03;;;10.43;100.00
8641;BME280;4358;42.100;25.222;2023-04-08T06:02:20;100494.22;;;10.35;100.00
8641;BME280;4358;42.100;25.222;2023-04-08T06:04:46;100497.34;;;10.42;100.00
8641;BME280;4358;42.100;25.222;2023-04-08T06:07:13;100503.25;;;10.47;100.00
8641;BME280;4358;42.100;25.222;2023-04-08T06:09:40;100497.41;;;10.72;100.00
8641;BME280;4358;42.100;25.222;2023-04-08T06:12:07;100499.69;;;10.93;100.00
8641;BME280;4358;42.100;25.222;2023-04-08T06:14:34;100512.34;;;11.18;100.00
8641;BME280;4358;42.100;25.222;2023-04-08T06:17:03;100513.59;;;11.27;100.00
8641;BME280;4358;42.100;25.222;2023-04-08T06:19:30;100517.97;;;11.28;100.00
8641;BME280;4358;42.100;25.222;2023-04-08T06:21:57;100515.59;;;11.23;100.00
8641;BME280;4358;42.100;25.222;2023-04-08T06:24:24;100520.03;;;11.23;100.00
8641;BME280;4358;42.100;25.222;2023-04-08T06:26:52;100509.22;;;11.26;100.00
8641;BME280;4358;42.100;25.222;2023-04-08T06:29:19;100517.22;;;11.40;100.00
8641;BME280;4358;42.100;25.222;2023-04-08T06:31:46;100525.66;;;11.46;100.00
8641;BME280;4358;42.100;25.222;2023-04-08T06:34:14;100521.78;;;11.52;100.00
8641;BME280;4358;42.100;25.222;2023-04-08T06:36:41;100524.00;;;11.16;100.00
8641;BME280;4358;42.100;25.222;2023-04-08T06:39:08;100514.97;;;11.04;100.00
8641;BME280;4358;42.100;25.222;2023-04-08T06:41:35;100522.25;;;11.30;100.00
8641;BME280;4358;42.100;25.222;2023-04-08T06:44:02;100524.06;;;11.44;100.00
8641;BME280;4358;42.100;25.222;2023-04-08T06:46:29;100522.28;;;11.59;100.00
8641;BME280;4358;42.100;25.222;2023-04-08T06:48:56;100513.72;;;11.68;100.00
8641;BME280;4358;42.100;25.222;2023-04-08T06:51:24;100518.22;;;11.81;100.00
8641;BME280;4358;42.100;25.222;2023-04-08T06:53:52;100528.50;;;11.87;100.00
8641;BME280;4358;42.100;25.222;2023-04-08T06:56:19;100521.25;;;11.89;100.00
8641;BME280;4358;42.100;25.222;2023-04-08T06:58:47;100524.00;;;11.88;100.00
8641;BME280;4358;42.100;25.222;2023-04-08T07:01:16;100518.41;;;11.93;100.00
8641;BME280;4358;42.100;25.222;2023-04-08T07:03:42;100530.38;;;11.85;100.00
8641;BME280;4358;42.100;25.222;2023-04-08T07:06:09;100522.38;;;12.00;100.00
8641;BME280;4358;42.100;25.222;2023-04-08T07:08:38;100529.91;;;12.07;100.00
8641;BME280;4358;42.100;25.222;2023-04-08T07:11:05;100540.03;;;12.29;100.00
8641;BME280;4358;42.100;25.222;2023-04-08T07:13:32;100537.06;;;12.34;100.00
8641;BME280;4358;42.100;25.222;2023-04-08T07:15:59;100543.13;;;12.50;100.00
8641;BME280;4358;42.100;25.222;2023-04-08T07:18:25;100538.19;;;12.44;100.00
8641;BME280;4358;42.100;25.222;2023-04-08T07:20:52;100535.94;;;12.64;100.00
8641;BME280;4358;42.100;25.222;2023-04-08T07:23:19;100535.16;;;12.89;100.00
8641;BME280;4358;42.100;25.222;2023-04-08T07:25:47;100534.31;;;12.89;100.00
8641;BME280;4358;42.100;25.222;2023-04-08T07:28:14;100500.78;;;12.59;100.00
8641;BME280;4358;42.100;25.222;2023-04-08T07:30:41;100530.84;;;13.01;100.00
8641;BME280;4358;42.100;25.222;2023-04-08T07:33:08;100529.06;;;13.14;100.00
8641;BME280;4358;42.100;25.222;2023-04-08T07:35:34;100529.66;;;12.92;100.00
8641;BME280;4358;42.100;25.222;2023-04-08T07:38:02;100526.00;;;12.81;100.00
8641;BME280;4358;42.100;25.222;2023-04-08T07:40:29;100528.97;;;12.89;100.00
8641;BME280;4358;42.100;25.222;2023-04-08T07:42:57;100530.47;;;12.93;100.00
8641;BME280;4358;42.100;25.222;2023-04-08T07:45:24;100531.16;;;13.09;100.00
8641;BME280;4358;42.100;25.222;2023-04-08T07:47:51;100529.44;;;13.22;100.00
8641;BME280;4358;42.100;25.222;2023-04-08T07:50:18;100533.09;;;13.07;100.00
8641;BME280;4358;42.100;25.222;2023-04-08T07:52:44;100532.28;;;13.19;100.00
8641;BME280;4358;42.100;25.222;2023-04-08T07:55:11;100534.59;;;13.11;100.00
8641;BME280;4358;42.100;25.222;2023-04-08T07:57:38;100532.59;;;13.14;100.00
8641;BME280;4358;42.100;25.222;2023-04-08T08:00:08;100525.94;;;13.60;100.00
8641;BME280;4358;42.100;25.222;2023-04-08T08:02:35;100537.66;;;13.82;100.00
8641;BME280;4358;42.100;25.222;2023-04-08T08:05:01;100533.28;;;13.94;99.04
8641;BME280;4358;42.100;25.222;2023-04-08T08:07:28;100541.06;;;13.72;100.00
8641;BME280;4358;42.100;25.222;2023-04-08T08:09:55;100538.41;;;13.97;97.69
8641;BME280;4358;42.100;25.222;2023-04-08T08:12:22;100541.91;;;14.10;90.37
8641;BME280;4358;42.100;25.222;2023-04-08T08:14:49;100542.34;;;14.04;92.98
8641;BME280;4358;42.100;25.222;2023-04-08T08:17:20;100550.00;;;14.21;87.50
8641;BME280;4358;42.100;25.222;2023-04-08T08:19:47;100544.13;;;14.16;84.68
8641;BME280;4358;42.100;25.222;2023-04-08T08:22:15;100540.31;;;13.95;85.01
8641;BME280;4358;42.100;25.222;2023-04-08T08:24:41;100533.75;;;14.24;84.56
8641;BME280;4358;42.100;25.222;2023-04-08T08:27:09;100539.50;;;14.44;82.07
8641;BME280;4358;42.100;25.222;2023-04-08T08:29:36;100540.94;;;14.60;75.70
8641;BME280;4358;42.100;25.222;2023-04-08T08:32:03;100531.47;;;14.80;74.15
8641;BME280;4358;42.100;25.222;2023-04-08T08:34:31;100529.34;;;14.96;69.20
8641;BME280;4358;42.100;25.222;2023-04-08T08:36:58;100523.50;;;14.91;70.00
8641;BME280;4358;42.100;25.222;2023-04-08T08:39:25;100518.81;;;14.82;76.56
8641;BME280;4358;42.100;25.222;2023-04-08T08:41:52;100518.00;;;14.93;78.41
8641;BME280;4358;42.100;25.222;2023-04-08T08:44:20;100520.06;;;14.89;74.83
8641;BME280;4358;42.100;25.222;2023-04-08T08:46:47;100517.16;;;14.92;76.50
8641;BME280;4358;42.100;25.222;2023-04-08T08:49:14;100512.34;;;15.08;76.90
8641;BME280;4358;42.100;25.222;2023-04-08T08:51:44;100513.88;;;15.23;78.98
8641;BME280;4358;42.100;25.222;2023-04-08T08:54:12;100513.16;;;15.21;78.25
8641;BME280;4358;42.100;25.222;2023-04-08T08:56:40;100503.41;;;15.20;80.30
8641;BME280;4358;42.100;25.222;2023-04-08T08:59:07;100507.13;;;15.42;80.06
8641;BME280;4358;42.100;25.222;2023-04-08T09:01:36;100506.16;;;15.43;81.33
8641;BME280;4358;42.100;25.222;2023-04-08T09:04:12;100507.22;;;14.94;81.56
8641;BME280;4358;42.100;25.222;2023-04-08T09:06:42;100502.13;;;14.91;83.59
8641;BME280;4358;42.100;25.222;2023-04-08T09:09:09;100476.44;;;14.54;86.36
8641;BME280;4358;42.100;25.222;2023-04-08T09:11:37;100501.94;;;14.58;87.02
8641;BME280;4358;42.100;25.222;2023-04-08T09:14:15;100504.78;;;14.91;86.29
8641;BME280;4358;42.100;25.222;2023-04-08T09:16:42;100501.16;;;15.03;86.06
8641;BME280;4358;42.100;25.222;2023-04-08T09:19:10;100499.03;;;14.84;83.88
8641;BME280;4358;42.100;25.222;2023-04-08T09:21:38;100489.16;;;14.74;81.03
8641;BME280;4358;42.100;25.222;2023-04-08T09:24:08;100496.41;;;14.96;79.68
8641;BME280;4358;42.100;25.222;2023-04-08T09:26:36;100489.69;;;15.25;81.81
8641;BME280;4358;42.100;25.222;2023-04-08T09:29:04;100496.63;;;15.39;79.44
8641;BME280;4358;42.100;25.222;2023-04-08T09:31:32;100496.34;;;15.19;76.64
8641;BME280;4358;42.100;25.222;2023-04-08T09:34:08;100487.63;;;15.17;79.33
8641;BME280;4358;42.100;25.222;2023-04-08T09:36:35;100493.84;;;14.94;80.23
8641;BME280;4358;42.100;25.222;2023-04-08T09:39:02;100484.44;;;15.23;79.14
8641;BME280;4358;42.100;25.222;2023-04-08T09:41:32;100480.59;;;15.50;78.69
8641;BME280;4358;42.100;25.222;2023-04-08T09:44:02;100482.78;;;15.22;75.19
8641;BME280;4358;42.100;25.222;2023-04-08T09:46:32;100481.09;;;15.33;74.58
8641;BME280;4358;42.100;25.222;2023-04-08T09:49:05;100486.66;;;15.30;78.96
8641;BME280;4358;42.100;25.222;2023-04-08T09:51:35;100486.72;;;15.52;79.66
8641;BME280;4358;42.100;25.222;2023-04-08T09:54:12;100478.47;;;15.88;76.07
8641;BME280;4358;42.100;25.222;2023-04-08T09:56:48;100467.53;;;15.69;74.48
8641;BME280;4358;42.100;25.222;2023-04-08T09:59:17;100479.44;;;15.54;70.56
8641;BME280;4358;42.100;25.222;2023-04-08T10:01:51;100475.28;;;15.61;70.99
8641;BME280;4358;42.100;25.222;2023-04-08T10:04:19;100479.19;;;15.68;73.87
8641;BME280;4358;42.100;25.222;2023-04-08T10:06:50;100471.97;;;15.46;72.22
8641;BME280;4358;42.100;25.222;2023-04-08T10:09:20;100462.19;;;15.69;72.51
8641;BME280;4358;42.100;25.222;2023-04-08T10:11:49;100476.16;;;16.17;69.57
8641;BME280;4358;42.100;25.222;2023-04-08T10:14:16;100464.28;;;16.31;69.69
8641;BME280;4358;42.100;25.222;2023-04-08T10:16:43;100467.88;;;16.52;66.31
8641;BME280;4358;42.100;25.222;2023-04-08T10:19:35;100465.69;;;16.89;66.44
8641;BME280;4358;42.100;25.222;2023-04-08T10:22:03;100463.09;;;16.99;65.84
8641;BME280;4358;42.100;25.222;2023-04-08T10:24:30;100456.75;;;17.00;65.74
8641;BME280;4358;42.100;25.222;2023-04-08T10:26:58;100448.19;;;17.06;64.95
8641;BME280;4358;42.100;25.222;2023-04-08T10:29:36;100441.09;;;17.25;64.53
8641;BME280;4358;42.100;25.222;2023-04-08T10:32:02;100440.31;;;16.93;64.35
8641;BME280;4358;42.100;25.222;2023-04-08T10:34:29;100443.97;;;17.13;64.29
8641;BME280;4358;42.100;25.222;2023-04-08T10:36:57;100424.50;;;17.31;62.66
8641;BME280;4358;42.100;25.222;2023-04-08T10:39:29;100432.56;;;17.11;62.31
8641;BME280;4358;42.100;25.222;2023-04-08T10:41:56;100430.91;;;16.99;62.71
8641;BME280;4358;42.100;25.222;2023-04-08T10:44:25;100423.84;;;17.18;61.93
8641;BME280;4358;42.100;25.222;2023-04-08T10:46:53;100430.38;;;17.25;59.44
8641;BME280;4358;42.100;25.222;2023-04-08T10:49:20;100424.97;;;17.46;59.39
8641;BME280;4358;42.100;25.222;2023-04-08T10:51:47;100427.53;;;17.68;57.38
8641;BME280;4358;42.100;25.222;2023-04-08T10:54:15;100420.25;;;17.90;56.78
8641;BME280;4358;42.100;25.222;2023-04-08T10:56:43;100415.19;;;18.06;55.93
8641;BME280;4358;42.100;25.222;2023-04-08T10:59:12;100406.13;;;18.07;56.25
8641;BME280;4358;42.100;25.222;2023-04-08T11:01:43;100399.59;;;17.90;57.13
8641;BME280;4358;42.100;25.222;2023-04-08T11:04:11;100394.81;;;17.94;57.01
8641;BME280;4358;42.100;25.222;2023-04-08T11:06:39;100389.69;;;17.81;58.64
8641;BME280;4358;42.100;25.222;2023-04-08T11:09:07;100380.00;;;17.59;60.31
8641;BME280;4358;42.100;25.222;2023-04-08T11:11:34;100385.19;;;17.91;57.31
8641;BME280;4358;42.100;25.222;2023-04-08T11:14:02;100373.16;;;17.95;55.62
8641;BME280;4358;42.100;25.222;2023-04-08T11:16:30;100376.34;;;18.10;56.03
8641;BME280;4358;42.100;25.222;2023-04-08T11:18:58;100362.03;;;18.00;55.59
8641;BME280;4358;42.100;25.222;2023-04-08T11:21:25;100364.59;;;18.40;53.01
8641;BME280;4358;42.100;25.222;2023-04-08T11:23:54;100371.28;;;18.65;51.65
8641;BME280;4358;42.100;25.222;2023-04-08T11:26:22;100363.03;;;18.37;52.09
8641;BME280;4358;42.100;25.222;2023-04-08T11:28:49;100371.91;;;17.90;52.70
8641;BME280;4358;42.100;25.222;2023-04-08T11:31:17;100333.06;;;17.94;52.54
8641;BME280;4358;42.100;25.222;2023-04-08T11:33:45;100367.16;;;18.41;50.76
8641;BME280;4358;42.100;25.222;2023-04-08T11:36:16;100352.59;;;18.73;49.80
8641;BME280;4358;42.100;25.222;2023-04-08T11:38:43;100356.41;;;18.70;49.51
8641;BME280;4358;42.100;25.222;2023-04-08T11:41:12;100352.72;;;18.81;47.87
8641;BME280;4358;42.100;25.222;2023-04-08T11:43:50;100351.88;;;18.51;49.02
8641;BME280;4358;42.100;25.222;2023-04-08T11:46:17;100344.94;;;18.39;49.82
8641;BME280;4358;42.100;25.222;2023-04-08T11:49:00;100341.44;;;18.68;48.75
8641;BME280;4358;42.100;25.222;2023-04-08T11:51:28;100340.16;;;18.52;48.80
8641;BME280;4358;42.100;25.222;2023-04-08T11:53:55;100337.59;;;18.60;51.04
8641;BME280;4358;42.100;25.222;2023-04-08T11:56:22;100334.91;;;18.70;50.50
8641;BME280;4358;42.100;25.222;2023-04-08T11:58:51;100339.44;;;18.70;49.37
8641;BME280;4358;42.100;25.222;2023-04-08T12:01:19;100327.84;;;18.79;48.75
8641;BME280;4358;42.100;25.222;2023-04-08T12:03:57;100312.78;;;18.86;47.80
8641;BME280;4358;42.100;25.222;2023-04-08T12:06:24;100320.16;;;18.93;47.12
8641;BME280;4358;42.100;25.222;2023-04-08T12:08:53;100324.25;;;19.34;47.59
8641;BME280;4358;42.100;25.222;2023-04-08T12:11:20;100316.88;;;19.64;46.90
8641;BME280;4358;42.100;25.222;2023-04-08T12:13:47;100317.88;;;19.63;46.55
8641;BME280;4358;42.100;25.222;2023-04-08T12:16:15;100317.66;;;19.56;45.38
8641;BME280;4358;42.100;25.222;2023-04-08T12:18:42;100308.63;;;19.38;47.67
8641;BME280;4358;42.100;25.222;2023-04-08T12:21:09;100307.59;;;19.12;47.59
8641;BME280;4358;42.100;25.222;2023-04-08T12:23:36;100311.50;;;19.27;47.03
8641;BME280;4358;42.100;25.222;2023-04-08T12:26:05;100297.72;;;19.39;47.23
8641;BME280;4358;42.100;25.222;2023-04-08T12:28:32;100294.66;;;19.62;46.60
8641;BME280;4358;42.100;25.222;2023-04-08T12:31:00;100294.41;;;19.55;45.95
8641;BME280;4358;42.100;25.222;2023-04-08T12:33:27;100292.53;;;19.28;45.68
8641;BME280;4358;42.100;25.222;2023-04-08T12:35:54;100294.31;;;19.10;46.62
8641;BME280;4358;42.100;25.222;2023-04-08T12:38:22;100278.03;;;19.39;46.33
8641;BME280;4358;42.100;25.222;2023-04-08T12:40:49;100285.94;;;19.50;45.88
8641;BME280;4358;42.100;25.222;2023-04-08T12:43:18;100286.66;;;19.42;45.37
8641;BME280;4358;42.100;25.222;2023-04-08T12:45:45;100278.56;;;19.42;44.51
8641;BME280;4358;42.100;25.222;2023-04-08T12:48:13;100277.72;;;19.52;44.15
8641;BME280;4358;42.100;25.222;2023-04-08T12:50:39;100278.00;;;19.49;44.96
8641;BME280;4358;42.100;25.222;2023-04-08T12:53:06;100286.84;;;19.31;44.04
8641;BME280;4358;42.100;25.222;2023-04-08T12:55:33;100275.78;;;19.34;44.35
8641;BME280;4358;42.100;25.222;2023-04-08T12:58:00;100273.50;;;19.12;45.43
8641;BME280;4358;42.100;25.222;2023-04-08T13:00:29;100274.25;;;19.04;46.13
8641;BME280;4358;42.100;25.222;2023-04-08T13:02:55;100268.47;;;18.90;46.54